sensor_id;sensor_type;location;lat;lon;timestamp;P1;durP1;ratioP1;P2;durP2;ratioP2
47725;SDS011;33483;48.294;16.388;2022-07-01T00:01:46;8.90;;;6.43;;
47725;SDS011;33483;48.294;16.388;2022-07-01T00:04:15;9.23;;;6.32;;
47725;SDS011;33483;48.294;16.388;2022-07-01T00:06:42;7.57;;;6.35;;
47725;SDS011;33483;48.294;16.388;2022-07-01T00:09:10;9.98;;;6.53;;
47725;SDS011;33483;48.294;16.388;2022-07-01T00:11:37;13.65;;;7.03;;
47725;SDS011;33483;48.294;16.388;2022-07-01T00:14:05;8.18;;;6.60;;
47725;SDS011;33483;48.294;16.388;2022-07-01T00:16:32;10.00;;;6.68;;
47725;SDS011;33483;48.294;16.388;2022-07-01T00:19:00;9.48;;;6.30;;
47725;SDS011;33483;48.294;16.388;2022-07-01T00:21:27;12.23;;;6.80;;
47725;SDS011;33483;48.294;16.388;2022-07-01T00:23:54;12.63;;;6.90;;
47725;SDS011;33483;48.294;16.388;2022-07-01T00:26:22;11.90;;;7.35;;
47725;SDS011;33483;48.294;16.388;2022-07-01T00:28:50;9.48;;;7.00;;
47725;SDS011;33483;48.294;16.388;2022-07-01T00:31:17;8.82;;;6.95;;
47725;SDS011;33483;48.294;16.388;2022-07-01T00:33:44;9.18;;;7.10;;
47725;SDS011;33483;48.294;16.388;2022-07-01T00:36:11;9.52;;;7.35;;
47725;SDS011;33483;48.294;16.388;2022-07-01T00:38:38;13.55;;;7.40;;
47725;SDS011;33483;48.294;16.388;2022-07-01T00:41:05;12.15;;;7.20;;
47725;SDS011;33483;48.294;16.388;2022-07-01T00:43:36;10.82;;;7.38;;
47725;SDS011;33483;48.294;16.388;2022-07-01T00:46:20;10.07;;;7.18;;
47725;SDS011;33483;48.294;16.388;2022-07-01T00:48:49;8.48;;;7.13;;
47725;SDS011;33483;48.294;16.388;2022-07-01T00:51:20;9.20;;;6.53;;
47725;SDS011;33483;48.294;16.388;2022-07-01T00:53:47;12.40;;;7.10;;
47725;SDS011;33483;48.294;16.388;2022-07-01T00:56:14;14.63;;;6.63;;
47725;SDS011;33483;48.294;16.388;2022-07-01T00:58:42;10.52;;;6.45;;
47725;SDS011;33483;48.294;16.388;2022-07-01T01:01:09;9.95;;;7.03;;
47725;SDS011;33483;48.294;16.388;2022-07-01T01:03:37;10.27;;;6.72;;
47725;SDS011;33483;48.294;16.388;2022-07-01T01:06:04;9.35;;;6.53;;
47725;SDS011;33483;48.294;16.388;2022-07-01T01:08:31;12.15;;;6.30;;
47725;SDS011;33483;48.294;16.388;2022-07-01T01:10:58;12.30;;;6.40;;
47725;SDS011;33483;48.294;16.388;2022-07-01T01:13:28;8.77;;;6.30;;
47725;SDS011;33483;48.294;16.388;2022-07-01T01:15:55;9.35;;;6.65;;
47725;SDS011;33483;48.294;16.388;2022-07-01T01:18:25;10.07;;;7.00;;
47725;SDS011;33483;48.294;16.388;2022-07-01T01:20:52;8.65;;;6.18;;
47725;SDS011;33483;48.294;16.388;2022-07-01T01:23:20;12.88;;;6.88;;
47725;SDS011;33483;48.294;16.388;2022-07-01T01:25:47;9.57;;;7.00;;
47725;SDS011;33483;48.294;16.388;2022-07-01T01:28:14;13.00;;;6.10;;
47725;SDS011;33483;48.294;16.388;2022-07-01T01:30:43;13.70;;;6.43;;
47725;SDS011;33483;48.294;16.388;2022-07-01T01:33:13;8.75;;;6.57;;
47725;SDS011;33483;48.294;16.388;2022-07-01T01:35:40;14.15;;;6.60;;
47725;SDS011;33483;48.294;16.388;2022-07-01T01:38:07;10.77;;;6.70;;
47725;SDS011;33483;48.294;16.388;2022-07-01T01:40:35;12.23;;;6.45;;
47725;SDS011;33483;48.294;16.388;2022-07-01T01:43:02;11.93;;;6.15;;
47725;SDS011;33483;48.294;16.388;2022-07-01T01:45:29;17.17;;;7.10;;
47725;SDS011;33483;48.294;16.388;2022-07-01T01:47:56;8.73;;;7.25;;
47725;SDS011;33483;48.294;16.388;2022-07-01T01:50:23;9.30;;;6.35;;
47725;SDS011;33483;48.294;16.388;2022-07-01T01:52:55;13.38;;;7.30;;
47725;SDS011;33483;48.294;16.388;2022-07-01T01:55:24;9.82;;;6.65;;
47725;SDS011;33483;48.294;16.388;2022-07-01T01:57:51;8.43;;;6.55;;
47725;SDS011;33483;48.294;16.388;2022-07-01T02:00:18;10.43;;;6.70;;
47725;SDS011;33483;48.294;16.388;2022-07-01T02:02:45;7.57;;;6.15;;
47725;SDS011;33483;48.294;16.388;2022-07-01T02:05:13;11.25;;;6.90;;
47725;SDS011;33483;48.294;16.388;2022-07-01T02:07:40;8.25;;;6.10;;
47725;SDS011;33483;48.294;16.388;2022-07-01T02:10:08;9.95;;;6.80;;
47725;SDS011;33483;48.294;16.388;2022-07-01T02:12:35;9.60;;;6.68;;
47725;SDS011;33483;48.294;16.388;2022-07-01T02:15:05;8.63;;;7.15;;
47725;SDS011;33483;48.294;16.388;2022-07-01T02:17:33;9.73;;;7.10;;
47725;SDS011;33483;48.294;16.388;2022-07-01T02:20:00;10.30;;;7.25;;
47725;SDS011;33483;48.294;16.388;2022-07-01T02:22:27;11.05;;;7.63;;
47725;SDS011;33483;48.294;16.388;2022-07-01T02:24:56;9.63;;;8.13;;
47725;SDS011;33483;48.294;16.388;2022-07-01T02:27:23;14.02;;;7.97;;
47725;SDS011;33483;48.294;16.388;2022-07-01T02:29:50;13.95;;;7.65;;
47725;SDS011;33483;48.294;16.388;2022-07-01T02:32:18;11.30;;;7.85;;
47725;SDS011;33483;48.294;16.388;2022-07-01T02:34:45;13.50;;;7.50;;
47725;SDS011;33483;48.294;16.388;2022-07-01T02:37:12;10.57;;;7.72;;
47725;SDS011;33483;48.294;16.388;2022-07-01T02:39:39;12.93;;;7.72;;
47725;SDS011;33483;48.294;16.388;2022-07-01T02:42:07;9.48;;;7.45;;
47725;SDS011;33483;48.294;16.388;2022-07-01T02:44:52;8.68;;;6.90;;
47725;SDS011;33483;48.294;16.388;2022-07-01T02:47:21;10.23;;;6.70;;
47725;SDS011;33483;48.294;16.388;2022-07-01T02:49:48;7.90;;;6.10;;
47725;SDS011;33483;48.294;16.388;2022-07-01T02:52:15;8.85;;;6.47;;
47725;SDS011;33483;48.294;16.388;2022-07-01T02:54:43;12.20;;;5.95;;
47725;SDS011;33483;48.294;16.388;2022-07-01T02:57:10;9.23;;;5.68;;
47725;SDS011;33483;48.294;16.388;2022-07-01T02:59:37;8.27;;;5.53;;
47725;SDS011;33483;48.294;16.388;2022-07-01T03:02:05;8.13;;;5.43;;
47725;SDS011;33483;48.294;16.388;2022-07-01T03:04:36;8.05;;;5.43;;
47725;SDS011;33483;48.294;16.388;2022-07-01T03:07:04;8.88;;;5.40;;
47725;SDS011;33483;48.294;16.388;2022-07-01T03:09:31;7.05;;;5.65;;
47725;SDS011;33483;48.294;16.388;2022-07-01T03:12:00;8.13;;;4.93;;
47725;SDS011;33483;48.294;16.388;2022-07-01T03:14:48;8.40;;;4.93;;
47725;SDS011;33483;48.294;16.388;2022-07-01T03:17:15;8.57;;;5.22;;
47725;SDS011;33483;48.294;16.388;2022-07-01T03:19:42;7.60;;;4.63;;
47725;SDS011;33483;48.294;16.388;2022-07-01T03:22:09;7.75;;;5.05;;
47725;SDS011;33483;48.294;16.388;2022-07-01T03:24:39;8.93;;;5.00;;
47725;SDS011;33483;48.294;16.388;2022-07-01T03:27:06;10.23;;;4.90;;
47725;SDS011;33483;48.294;16.388;2022-07-01T03:29:33;6.30;;;4.57;;
47725;SDS011;33483;48.294;16.388;2022-07-01T03:32:00;8.30;;;4.82;;
47725;SDS011;33483;48.294;16.388;2022-07-01T03:34:27;5.88;;;4.45;;
47725;SDS011;33483;48.294;16.388;2022-07-01T03:36:54;9.40;;;4.57;;
47725;SDS011;33483;48.294;16.388;2022-07-01T03:39:22;7.85;;;5.15;;
47725;SDS011;33483;48.294;16.388;2022-07-01T03:41:49;6.78;;;4.50;;
47725;SDS011;33483;48.294;16.388;2022-07-01T03:44:16;6.78;;;4.28;;
47725;SDS011;33483;48.294;16.388;2022-07-01T03:46:45;5.90;;;4.43;;
47725;SDS011;33483;48.294;16.388;2022-07-01T03:49:15;7.35;;;4.47;;
47725;SDS011;33483;48.294;16.388;2022-07-01T03:51:42;7.15;;;4.30;;
47725;SDS011;33483;48.294;16.388;2022-07-01T03:54:09;6.68;;;4.20;;
47725;SDS011;33483;48.294;16.388;2022-07-01T03:59:30;5.65;;;4.50;;
47725;SDS011;33483;48.294;16.388;2022-07-01T04:01:59;6.63;;;4.45;;
47725;SDS011;33483;48.294;16.388;2022-07-01T04:04:26;6.07;;;4.18;;
47725;SDS011;33483;48.294;16.388;2022-07-01T04:06:57;5.57;;;4.30;;
47725;SDS011;33483;48.294;16.388;2022-07-01T04:09:31;6.78;;;4.30;;
47725;SDS011;33483;48.294;16.388;2022-07-01T04:11:58;12.48;;;4.90;;
47725;SDS011;33483;48.294;16.388;2022-07-01T04:14:26;5.22;;;4.30;;
47725;SDS011;33483;48.294;16.388;2022-07-01T04:16:53;6.35;;;4.43;;
47725;SDS011;33483;48.294;16.388;2022-07-01T04:19:20;7.65;;;4.60;;
47725;SDS011;33483;48.294;16.388;2022-07-01T04:21:50;6.63;;;4.32;;
47725;SDS011;33483;48.294;16.388;2022-07-01T04:24:35;6.72;;;3.95;;
47725;SDS011;33483;48.294;16.388;2022-07-01T04:27:03;8.65;;;3.90;;
47725;SDS011;33483;48.294;16.388;2022-07-01T04:29:33;5.30;;;3.78;;
47725;SDS011;33483;48.294;16.388;2022-07-01T04:32:02;5.38;;;3.92;;
47725;SDS011;33483;48.294;16.388;2022-07-01T04:34:29;5.38;;;3.67;;
47725;SDS011;33483;48.294;16.388;2022-07-01T04:36:56;7.97;;;4.20;;
47725;SDS011;33483;48.294;16.388;2022-07-01T04:39:24;5.55;;;3.83;;
47725;SDS011;33483;48.294;16.388;2022-07-01T04:41:51;5.22;;;3.80;;
47725;SDS011;33483;48.294;16.388;2022-07-01T04:44:30;5.80;;;3.85;;
47725;SDS011;33483;48.294;16.388;2022-07-01T04:46:59;8.18;;;3.65;;
47725;SDS011;33483;48.294;16.388;2022-07-01T04:49:30;6.13;;;3.78;;
47725;SDS011;33483;48.294;16.388;2022-07-01T04:52:00;8.63;;;3.70;;
47725;SDS011;33483;48.294;16.388;2022-07-01T04:54:27;5.55;;;3.63;;
47725;SDS011;33483;48.294;16.388;2022-07-01T04:56:54;6.50;;;3.10;;
47725;SDS011;33483;48.294;16.388;2022-07-01T04:59:21;6.13;;;3.45;;
47725;SDS011;33483;48.294;16.388;2022-07-01T05:01:48;4.28;;;3.50;;
47725;SDS011;33483;48.294;16.388;2022-07-01T05:04:17;6.32;;;2.80;;
47725;SDS011;33483;48.294;16.388;2022-07-01T05:06:47;7.13;;;2.80;;
47725;SDS011;33483;48.294;16.388;2022-07-01T05:09:16;11.65;;;3.10;;
47725;SDS011;33483;48.294;16.388;2022-07-01T05:11:47;3.22;;;2.45;;
47725;SDS011;33483;48.294;16.388;2022-07-01T05:14:16;6.82;;;2.10;;
47725;SDS011;33483;48.294;16.388;2022-07-01T05:16:45;3.33;;;2.28;;
47725;SDS011;33483;48.294;16.388;2022-07-01T05:19:14;6.68;;;1.90;;
47725;SDS011;33483;48.294;16.388;2022-07-01T05:22:00;6.35;;;1.80;;
47725;SDS011;33483;48.294;16.388;2022-07-01T05:24:31;5.63;;;1.90;;
47725;SDS011;33483;48.294;16.388;2022-07-01T05:26:59;3.00;;;1.42;;
47725;SDS011;33483;48.294;16.388;2022-07-01T05:29:28;4.43;;;1.45;;
47725;SDS011;33483;48.294;16.388;2022-07-01T05:31:56;3.50;;;1.17;;
47725;SDS011;33483;48.294;16.388;2022-07-01T05:34:24;5.65;;;1.40;;
47725;SDS011;33483;48.294;16.388;2022-07-01T05:36:51;3.85;;;1.02;;
47725;SDS011;33483;48.294;16.388;2022-07-01T05:39:19;6.25;;;1.70;;
47725;SDS011;33483;48.294;16.388;2022-07-01T05:41:46;8.25;;;1.27;;
47725;SDS011;33483;48.294;16.388;2022-07-01T05:44:16;2.58;;;0.95;;
47725;SDS011;33483;48.294;16.388;2022-07-01T05:46:44;4.25;;;1.27;;
47725;SDS011;33483;48.294;16.388;2022-07-01T05:49:11;3.03;;;0.95;;
47725;SDS011;33483;48.294;16.388;2022-07-01T05:51:44;8.05;;;1.30;;
47725;SDS011;33483;48.294;16.388;2022-07-01T05:54:12;4.63;;;1.00;;
47725;SDS011;33483;48.294;16.388;2022-07-01T05:56:42;7.47;;;1.20;;
47725;SDS011;33483;48.294;16.388;2022-07-01T05:59:09;7.93;;;1.05;;
47725;SDS011;33483;48.294;16.388;2022-07-01T06:01:40;2.10;;;1.13;;
47725;SDS011;33483;48.294;16.388;2022-07-01T06:04:07;3.45;;;1.05;;
47725;SDS011;33483;48.294;16.388;2022-07-01T06:06:35;2.38;;;1.40;;
47725;SDS011;33483;48.294;16.388;2022-07-01T06:09:03;3.28;;;1.23;;
47725;SDS011;33483;48.294;16.388;2022-07-01T06:11:30;1.70;;;1.00;;
47725;SDS011;33483;48.294;16.388;2022-07-01T06:13:58;8.00;;;1.75;;
47725;SDS011;33483;48.294;16.388;2022-07-01T06:16:28;6.10;;;1.50;;
47725;SDS011;33483;48.294;16.388;2022-07-01T06:18:57;4.88;;;1.50;;
47725;SDS011;33483;48.294;16.388;2022-07-01T06:21:25;9.95;;;1.98;;
47725;SDS011;33483;48.294;16.388;2022-07-01T06:23:55;5.10;;;1.58;;
47725;SDS011;33483;48.294;16.388;2022-07-01T06:26:23;3.17;;;1.30;;
47725;SDS011;33483;48.294;16.388;2022-07-01T06:28:50;4.28;;;1.52;;
47725;SDS011;33483;48.294;16.388;2022-07-01T06:31:17;3.92;;;1.50;;
47725;SDS011;33483;48.294;16.388;2022-07-01T06:33:44;6.85;;;1.92;;
47725;SDS011;33483;48.294;16.388;2022-07-01T06:36:11;3.97;;;1.70;;
47725;SDS011;33483;48.294;16.388;2022-07-01T06:38:40;10.88;;;2.22;;
47725;SDS011;33483;48.294;16.388;2022-07-01T06:41:08;4.78;;;1.83;;
47725;SDS011;33483;48.294;16.388;2022-07-01T06:43:57;4.90;;;2.30;;
47725;SDS011;33483;48.294;16.388;2022-07-01T06:46:31;4.80;;;1.92;;
47725;SDS011;33483;48.294;16.388;2022-07-01T06:49:01;6.03;;;1.88;;
47725;SDS011;33483;48.294;16.388;2022-07-01T06:51:30;7.20;;;1.88;;
47725;SDS011;33483;48.294;16.388;2022-07-01T06:53:57;2.75;;;1.83;;
47725;SDS011;33483;48.294;16.388;2022-07-01T06:56:27;10.30;;;2.08;;
47725;SDS011;33483;48.294;16.388;2022-07-01T06:58:54;4.40;;;2.30;;
47725;SDS011;33483;48.294;16.388;2022-07-01T07:01:22;5.72;;;2.05;;
47725;SDS011;33483;48.294;16.388;2022-07-01T07:03:49;3.75;;;2.10;;
47725;SDS011;33483;48.294;16.388;2022-07-01T07:06:16;9.90;;;2.35;;
47725;SDS011;33483;48.294;16.388;2022-07-01T07:08:43;11.40;;;2.42;;
47725;SDS011;33483;48.294;16.388;2022-07-01T07:11:11;4.88;;;2.20;;
47725;SDS011;33483;48.294;16.388;2022-07-01T07:13:38;4.45;;;2.10;;
47725;SDS011;33483;48.294;16.388;2022-07-01T07:16:06;8.30;;;2.00;;
47725;SDS011;33483;48.294;16.388;2022-07-01T07:18:33;11.18;;;2.17;;
47725;SDS011;33483;48.294;16.388;2022-07-01T07:21:01;10.98;;;1.88;;
47725;SDS011;33483;48.294;16.388;2022-07-01T07:23:29;6.57;;;2.20;;
47725;SDS011;33483;48.294;16.388;2022-07-01T07:25:57;8.52;;;2.40;;
47725;SDS011;33483;48.294;16.388;2022-07-01T07:28:24;4.55;;;2.08;;
47725;SDS011;33483;48.294;16.388;2022-07-01T07:30:51;11.18;;;3.65;;
47725;SDS011;33483;48.294;16.388;2022-07-01T07:33:20;5.20;;;2.10;;
47725;SDS011;33483;48.294;16.388;2022-07-01T07:35:47;6.85;;;2.20;;
47725;SDS011;33483;48.294;16.388;2022-07-01T07:38:14;6.85;;;2.53;;
47725;SDS011;33483;48.294;16.388;2022-07-01T07:40:44;7.38;;;2.45;;
47725;SDS011;33483;48.294;16.388;2022-07-01T07:43:11;6.95;;;2.22;;
47725;SDS011;33483;48.294;16.388;2022-07-01T07:45:38;6.55;;;2.40;;
47725;SDS011;33483;48.294;16.388;2022-07-01T07:48:10;9.02;;;2.63;;
47725;SDS011;33483;48.294;16.388;2022-07-01T07:50:37;7.03;;;2.80;;
47725;SDS011;33483;48.294;16.388;2022-07-01T07:53:04;7.88;;;2.72;;
47725;SDS011;33483;48.294;16.388;2022-07-01T07:55:32;7.82;;;2.40;;
47725;SDS011;33483;48.294;16.388;2022-07-01T07:58:01;6.40;;;2.55;;
47725;SDS011;33483;48.294;16.388;2022-07-01T08:00:28;6.57;;;2.55;;
47725;SDS011;33483;48.294;16.388;2022-07-01T08:02:55;4.95;;;2.50;;
47725;SDS011;33483;48.294;16.388;2022-07-01T08:05:22;6.32;;;2.30;;
47725;SDS011;33483;48.294;16.388;2022-07-01T08:07:50;6.15;;;2.70;;
47725;SDS011;33483;48.294;16.388;2022-07-01T08:10:17;8.40;;;2.92;;
47725;SDS011;33483;48.294;16.388;2022-07-01T08:12:44;7.25;;;2.20;;
47725;SDS011;33483;48.294;16.388;2022-07-01T08:15:11;5.07;;;2.65;;
47725;SDS011;33483;48.294;16.388;2022-07-01T08:17:41;6.13;;;2.55;;
47725;SDS011;33483;48.294;16.388;2022-07-01T08:20:10;6.90;;;2.40;;
47725;SDS011;33483;48.294;16.388;2022-07-01T08:22:38;5.75;;;2.35;;
47725;SDS011;33483;48.294;16.388;2022-07-01T08:25:07;12.25;;;2.67;;
47725;SDS011;33483;48.294;16.388;2022-07-01T08:27:38;15.80;;;2.92;;
47725;SDS011;33483;48.294;16.388;2022-07-01T08:30:06;5.13;;;2.20;;
47725;SDS011;33483;48.294;16.388;2022-07-01T08:32:34;5.22;;;2.58;;
47725;SDS011;33483;48.294;16.388;2022-07-01T08:35:01;4.90;;;2.20;;
47725;SDS011;33483;48.294;16.388;2022-07-01T08:37:28;4.78;;;2.50;;
47725;SDS011;33483;48.294;16.388;2022-07-01T08:39:58;5.90;;;2.40;;
47725;SDS011;33483;48.294;16.388;2022-07-01T08:42:26;5.85;;;2.47;;
47725;SDS011;33483;48.294;16.388;2022-07-01T08:44:53;6.63;;;2.50;;
47725;SDS011;33483;48.294;16.388;2022-07-01T08:47:20;7.13;;;2.60;;
47725;SDS011;33483;48.294;16.388;2022-07-01T08:49:49;6.22;;;2.70;;
47725;SDS011;33483;48.294;16.388;2022-07-01T08:52:16;7.30;;;2.47;;
47725;SDS011;33483;48.294;16.388;2022-07-01T08:54:43;5.80;;;2.30;;
47725;SDS011;33483;48.294;16.388;2022-07-01T08:57:13;4.13;;;2.65;;
47725;SDS011;33483;48.294;16.388;2022-07-01T08:59:41;6.30;;;2.40;;
47725;SDS011;33483;48.294;16.388;2022-07-01T09:02:09;9.55;;;2.70;;
47725;SDS011;33483;48.294;16.388;2022-07-01T09:04:37;8.00;;;2.45;;
47725;SDS011;33483;48.294;16.388;2022-07-01T09:07:05;4.65;;;2.35;;
47725;SDS011;33483;48.294;16.388;2022-07-01T09:09:35;4.18;;;2.60;;
47725;SDS011;33483;48.294;16.388;2022-07-01T09:12:04;5.95;;;2.58;;
47725;SDS011;33483;48.294;16.388;2022-07-01T09:14:35;6.55;;;2.50;;
47725;SDS011;33483;48.294;16.388;2022-07-01T09:17:04;5.18;;;2.60;;
47725;SDS011;33483;48.294;16.388;2022-07-01T09:19:34;6.10;;;2.33;;
47725;SDS011;33483;48.294;16.388;2022-07-01T09:22:12;7.72;;;2.65;;
47725;SDS011;33483;48.294;16.388;2022-07-01T09:24:40;4.97;;;2.25;;
47725;SDS011;33483;48.294;16.388;2022-07-01T09:27:14;4.43;;;2.60;;
47725;SDS011;33483;48.294;16.388;2022-07-01T09:32:13;6.05;;;2.00;;
47725;SDS011;33483;48.294;16.388;2022-07-01T09:37:14;3.10;;;2.40;;
47725;SDS011;33483;48.294;16.388;2022-07-01T09:39:49;7.63;;;2.72;;
47725;SDS011;33483;48.294;16.388;2022-07-01T09:42:19;6.05;;;2.67;;
47725;SDS011;33483;48.294;16.388;2022-07-01T09:45:03;6.60;;;2.58;;
47725;SDS011;33483;48.294;16.388;2022-07-01T09:47:40;3.50;;;2.70;;
47725;SDS011;33483;48.294;16.388;2022-07-01T09:50:11;6.45;;;2.67;;
47725;SDS011;33483;48.294;16.388;2022-07-01T09:52:39;5.85;;;2.50;;
47725;SDS011;33483;48.294;16.388;2022-07-01T09:55:07;6.22;;;2.63;;
47725;SDS011;33483;48.294;16.388;2022-07-01T09:57:35;6.75;;;2.67;;
47725;SDS011;33483;48.294;16.388;2022-07-01T10:00:03;5.15;;;2.72;;
47725;SDS011;33483;48.294;16.388;2022-07-01T10:02:33;4.43;;;2.55;;
47725;SDS011;33483;48.294;16.388;2022-07-01T10:05:14;8.50;;;2.60;;
47725;SDS011;33483;48.294;16.388;2022-07-01T10:13:10;4.18;;;2.60;;
47725;SDS011;33483;48.294;16.388;2022-07-01T10:15:42;3.67;;;2.33;;
47725;SDS011;33483;48.294;16.388;2022-07-01T10:18:19;5.90;;;2.63;;
47725;SDS011;33483;48.294;16.388;2022-07-01T10:20:48;7.35;;;3.00;;
47725;SDS011;33483;48.294;16.388;2022-07-01T10:23:16;4.15;;;2.83;;
47725;SDS011;33483;48.294;16.388;2022-07-01T10:25:48;4.15;;;2.75;;
47725;SDS011;33483;48.294;16.388;2022-07-01T10:33:27;5.65;;;2.70;;
47725;SDS011;33483;48.294;16.388;2022-07-01T10:36:07;3.92;;;2.67;;
47725;SDS011;33483;48.294;16.388;2022-07-01T10:41:37;3.92;;;2.35;;
47725;SDS011;33483;48.294;16.388;2022-07-01T10:44:07;6.22;;;2.63;;
47725;SDS011;33483;48.294;16.388;2022-07-01T10:46:43;4.65;;;2.47;;
47725;SDS011;33483;48.294;16.388;2022-07-01T10:49:17;5.85;;;2.20;;
47725;SDS011;33483;48.294;16.388;2022-07-01T10:51:57;3.28;;;2.13;;
47725;SDS011;33483;48.294;16.388;2022-07-01T11:04:59;3.65;;;2.50;;
47725;SDS011;33483;48.294;16.388;2022-07-01T11:07:30;6.15;;;2.47;;
47725;SDS011;33483;48.294;16.388;2022-07-01T11:10:00;3.47;;;2.40;;
47725;SDS011;33483;48.294;16.388;2022-07-01T11:12:29;5.68;;;2.25;;
47725;SDS011;33483;48.294;16.388;2022-07-01T11:15:02;5.65;;;2.45;;
47725;SDS011;33483;48.294;16.388;2022-07-01T11:17:34;3.58;;;2.40;;
47725;SDS011;33483;48.294;16.388;2022-07-01T11:20:04;3.90;;;2.25;;
47725;SDS011;33483;48.294;16.388;2022-07-01T11:22:33;4.60;;;2.38;;
47725;SDS011;33483;48.294;16.388;2022-07-01T11:25:03;3.90;;;2.35;;
47725;SDS011;33483;48.294;16.388;2022-07-01T11:27:33;5.53;;;2.53;;
47725;SDS011;33483;48.294;16.388;2022-07-01T11:30:10;4.65;;;2.53;;
47725;SDS011;33483;48.294;16.388;2022-07-01T11:32:40;4.03;;;2.40;;
47725;SDS011;33483;48.294;16.388;2022-07-01T11:38:04;4.07;;;2.60;;
47725;SDS011;33483;48.294;16.388;2022-07-01T11:40:51;9.20;;;2.55;;
47725;SDS011;33483;48.294;16.388;2022-07-01T11:43:29;3.30;;;1.95;;
47725;SDS011;33483;48.294;16.388;2022-07-01T11:46:04;5.45;;;2.30;;
47725;SDS011;33483;48.294;16.388;2022-07-01T11:48:34;6.50;;;2.50;;
47725;SDS011;33483;48.294;16.388;2022-07-01T11:51:07;6.38;;;2.25;;
47725;SDS011;33483;48.294;16.388;2022-07-01T11:53:37;4.70;;;2.17;;
47725;SDS011;33483;48.294;16.388;2022-07-01T11:56:08;5.00;;;2.55;;
47725;SDS011;33483;48.294;16.388;2022-07-01T12:01:35;5.43;;;2.53;;
47725;SDS011;33483;48.294;16.388;2022-07-01T12:04:08;2.83;;;2.22;;
47725;SDS011;33483;48.294;16.388;2022-07-01T12:06:37;3.45;;;2.53;;
47725;SDS011;33483;48.294;16.388;2022-07-01T12:09:09;3.70;;;2.65;;
47725;SDS011;33483;48.294;16.388;2022-07-01T12:11:49;6.38;;;2.65;;
47725;SDS011;33483;48.294;16.388;2022-07-01T12:14:23;5.40;;;2.65;;
47725;SDS011;33483;48.294;16.388;2022-07-01T12:16:54;4.80;;;2.40;;
47725;SDS011;33483;48.294;16.388;2022-07-01T12:19:27;3.13;;;2.00;;
47725;SDS011;33483;48.294;16.388;2022-07-01T12:21:57;5.57;;;2.17;;
47725;SDS011;33483;48.294;16.388;2022-07-01T12:24:28;5.22;;;2.30;;
47725;SDS011;33483;48.294;16.388;2022-07-01T12:29:27;4.43;;;2.20;;
47725;SDS011;33483;48.294;16.388;2022-07-01T12:32:04;8.02;;;2.40;;
47725;SDS011;33483;48.294;16.388;2022-07-01T12:34:41;4.20;;;2.10;;
47725;SDS011;33483;48.294;16.388;2022-07-01T12:37:09;5.45;;;2.63;;
47725;SDS011;33483;48.294;16.388;2022-07-01T12:42:40;6.68;;;2.25;;
47725;SDS011;33483;48.294;16.388;2022-07-01T12:45:14;5.97;;;2.40;;
47725;SDS011;33483;48.294;16.388;2022-07-01T12:47:44;6.90;;;2.63;;
47725;SDS011;33483;48.294;16.388;2022-07-01T12:50:19;6.20;;;2.58;;
47725;SDS011;33483;48.294;16.388;2022-07-01T12:53:11;3.08;;;2.10;;
47725;SDS011;33483;48.294;16.388;2022-07-01T12:55:47;4.13;;;2.60;;
47725;SDS011;33483;48.294;16.388;2022-07-01T12:58:21;6.77;;;2.73;;
47725;SDS011;33483;48.294;16.388;2022-07-01T13:00:51;4.05;;;2.50;;
47725;SDS011;33483;48.294;16.388;2022-07-01T13:03:24;3.55;;;2.60;;
47725;SDS011;33483;48.294;16.388;2022-07-01T13:05:54;5.40;;;3.00;;
47725;SDS011;33483;48.294;16.388;2022-07-01T13:08:22;5.25;;;2.88;;
47725;SDS011;33483;48.294;16.388;2022-07-01T13:10:51;3.92;;;2.70;;
47725;SDS011;33483;48.294;16.388;2022-07-01T13:13:20;3.67;;;2.40;;
47725;SDS011;33483;48.294;16.388;2022-07-01T13:16:17;5.30;;;2.60;;
47725;SDS011;33483;48.294;16.388;2022-07-01T13:18:46;6.13;;;2.65;;
47725;SDS011;33483;48.294;16.388;2022-07-01T13:21:14;4.80;;;2.95;;
47725;SDS011;33483;48.294;16.388;2022-07-01T13:23:42;5.20;;;2.95;;
47725;SDS011;33483;48.294;16.388;2022-07-01T13:26:09;5.45;;;2.75;;
47725;SDS011;33483;48.294;16.388;2022-07-01T13:28:37;4.78;;;2.58;;
47725;SDS011;33483;48.294;16.388;2022-07-01T13:31:07;4.90;;;2.55;;
47725;SDS011;33483;48.294;16.388;2022-07-01T13:33:35;5.03;;;2.85;;
47725;SDS011;33483;48.294;16.388;2022-07-01T13:36:03;6.40;;;2.92;;
47725;SDS011;33483;48.294;16.388;2022-07-01T13:38:31;5.35;;;2.40;;
47725;SDS011;33483;48.294;16.388;2022-07-01T13:40:58;5.03;;;2.70;;
47725;SDS011;33483;48.294;16.388;2022-07-01T13:43:29;5.30;;;2.70;;
47725;SDS011;33483;48.294;16.388;2022-07-01T13:45:56;6.75;;;3.08;;
47725;SDS011;33483;48.294;16.388;2022-07-01T13:48:24;4.53;;;2.90;;
47725;SDS011;33483;48.294;16.388;2022-07-01T13:50:52;3.10;;;2.50;;
47725;SDS011;33483;48.294;16.388;2022-07-01T13:53:19;5.85;;;2.45;;
47725;SDS011;33483;48.294;16.388;2022-07-01T13:55:46;4.55;;;2.53;;
47725;SDS011;33483;48.294;16.388;2022-07-01T13:58:14;6.82;;;3.00;;
47725;SDS011;33483;48.294;16.388;2022-07-01T14:00:43;3.67;;;2.60;;
47725;SDS011;33483;48.294;16.388;2022-07-01T14:03:10;11.13;;;2.90;;
47725;SDS011;33483;48.294;16.388;2022-07-01T14:05:38;5.78;;;2.53;;
47725;SDS011;33483;48.294;16.388;2022-07-01T14:08:06;3.83;;;2.80;;
47725;SDS011;33483;48.294;16.388;2022-07-01T14:10:33;7.72;;;3.00;;
47725;SDS011;33483;48.294;16.388;2022-07-01T14:13:05;6.03;;;2.90;;
47725;SDS011;33483;48.294;16.388;2022-07-01T14:15:32;8.07;;;2.83;;
47725;SDS011;33483;48.294;16.388;2022-07-01T14:18:02;5.20;;;2.83;;
47725;SDS011;33483;48.294;16.388;2022-07-01T14:20:31;5.40;;;2.88;;
47725;SDS011;33483;48.294;16.388;2022-07-01T14:22:59;4.45;;;2.80;;
47725;SDS011;33483;48.294;16.388;2022-07-01T14:25:26;7.00;;;2.97;;
47725;SDS011;33483;48.294;16.388;2022-07-01T14:27:56;7.20;;;2.85;;
47725;SDS011;33483;48.294;16.388;2022-07-01T14:30:25;7.45;;;2.72;;
47725;SDS011;33483;48.294;16.388;2022-07-01T14:32:53;5.53;;;2.58;;
47725;SDS011;33483;48.294;16.388;2022-07-01T14:35:20;5.13;;;2.90;;
47725;SDS011;33483;48.294;16.388;2022-07-01T14:37:48;3.10;;;2.60;;
47725;SDS011;33483;48.294;16.388;2022-07-01T14:40:19;4.25;;;2.75;;
47725;SDS011;33483;48.294;16.388;2022-07-01T14:42:46;6.50;;;2.83;;
47725;SDS011;33483;48.294;16.388;2022-07-01T14:45:16;4.97;;;3.22;;
47725;SDS011;33483;48.294;16.388;2022-07-01T14:47:44;5.03;;;2.60;;
47725;SDS011;33483;48.294;16.388;2022-07-01T14:50:31;6.72;;;2.67;;
47725;SDS011;33483;48.294;16.388;2022-07-01T14:53:06;6.60;;;2.80;;
47725;SDS011;33483;48.294;16.388;2022-07-01T14:55:39;3.35;;;2.75;;
47725;SDS011;33483;48.294;16.388;2022-07-01T14:58:10;5.03;;;2.63;;
47725;SDS011;33483;48.294;16.388;2022-07-01T15:00:38;6.45;;;2.90;;
47725;SDS011;33483;48.294;16.388;2022-07-01T15:03:05;6.50;;;2.90;;
47725;SDS011;33483;48.294;16.388;2022-07-01T15:05:33;4.85;;;2.90;;
47725;SDS011;33483;48.294;16.388;2022-07-01T15:08:01;8.02;;;3.03;;
47725;SDS011;33483;48.294;16.388;2022-07-01T15:10:28;6.68;;;3.17;;
47725;SDS011;33483;48.294;16.388;2022-07-01T15:13:00;5.40;;;2.85;;
47725;SDS011;33483;48.294;16.388;2022-07-01T15:15:28;6.13;;;2.97;;
47725;SDS011;33483;48.294;16.388;2022-07-01T15:17:58;5.53;;;3.25;;
47725;SDS011;33483;48.294;16.388;2022-07-01T15:20:25;7.20;;;2.67;;
47725;SDS011;33483;48.294;16.388;2022-07-01T15:22:53;10.30;;;2.90;;
47725;SDS011;33483;48.294;16.388;2022-07-01T15:25:21;5.53;;;2.90;;
47725;SDS011;33483;48.294;16.388;2022-07-01T15:27:49;6.07;;;3.38;;
47725;SDS011;33483;48.294;16.388;2022-07-01T15:30:20;5.40;;;3.15;;